sensor_id;sensor_type;location;lat;lon;timestamp;pressure;altitude;pressure_sealevel;temperature;humidity
41712;BME280;27399;51.516;13.670;2023-04-21T00:00:26;100757.00;;;9.54;88.24
41712;BME280;27399;51.516;13.670;2023-04-21T00:02:51;100751.66;;;9.42;87.76
41712;BME280;27399;51.516;13.670;2023-04-21T00:05:17;100760.56;;;9.66;86.99
41712;BME280;27399;51.516;13.670;2023-04-21T00:07:42;100763.19;;;9.44;87.88
41712;BME280;27399;51.516;13.670;2023-04-21T00:10:11;100754.31;;;9.40;87.94
41712;BME280;27399;51.516;13.670;2023-04-21T00:12:36;100759.63;;;9.48;87.44
41712;BME280;27399;51.516;13.670;2023-04-21T00:15:03;100745.44;;;9.38;87.71
41712;BME280;27399;51.516;13.670;2023-04-21T00:17:29;100752.53;;;9.45;88.00
41712;BME280;27399;51.516;13.670;2023-04-21T00:19:56;100749.00;;;9.50;87.77
41712;BME280;27399;51.516;13.670;2023-04-21T00:22:22;100745.44;;;9.41;87.99
41712;BME280;27399;51.516;13.670;2023-04-21T00:24:48;100749.00;;;9.46;88.09
41712;BME280;27399;51.516;13.670;2023-04-21T00:27:14;100749.00;;;9.40;88.36
41712;BME280;27399;51.516;13.670;2023-04-21T00:29:40;100749.00;;;9.40;88.14
41712;BME280;27399;51.516;13.670;2023-04-21T00:32:06;100748.09;;;9.43;87.78
41712;BME280;27399;51.516;13.670;2023-04-21T00:34:36;100741.00;;;9.31;88.31
41712;BME280;27399;51.516;13.670;2023-04-21T00:37:02;100740.09;;;9.35;88.22
41712;BME280;27399;51.516;13.670;2023-04-21T00:39:28;100737.44;;;9.34;87.81
41712;BME280;27399;51.516;13.670;2023-04-21T00:41:54;100734.81;;;9.51;87.49
41712;BME280;27399;51.516;13.670;2023-04-21T00:44:19;100736.56;;;9.45;87.87
41712;BME280;27399;51.516;13.670;2023-04-21T00:46:45;100730.38;;;9.45;87.55
41712;BME280;27399;51.516;13.670;2023-04-21T00:49:11;100729.47;;;9.29;87.73
41712;BME280;27399;51.516;13.670;2023-04-21T00:51:38;100731.25;;;9.35;88.04
41712;BME280;27399;51.516;13.670;2023-04-21T00:54:05;100732.13;;;9.24;87.81
41712;BME280;27399;51.516;13.670;2023-04-21T00:56:32;100732.13;;;9.34;87.86
41712;BME280;27399;51.516;13.670;2023-04-21T00:58:59;100722.31;;;9.22;88.15
41712;BME280;27399;51.516;13.670;2023-04-21T01:01:25;100727.69;;;9.40;87.90
41712;BME280;27399;51.516;13.670;2023-04-21T01:03:51;100722.38;;;9.40;87.50
41712;BME280;27399;51.516;13.670;2023-04-21T01:06:18;100725.91;;;9.27;87.95
41712;BME280;27399;51.516;13.670;2023-04-21T01:08:47;100719.69;;;9.28;88.18
41712;BME280;27399;51.516;13.670;2023-04-21T01:11:13;100717.94;;;9.36;87.54
41712;BME280;27399;51.516;13.670;2023-04-21T01:13:39;100720.56;;;9.24;87.53
41712;BME280;27399;51.516;13.670;2023-04-21T01:16:06;100718.81;;;9.20;88.16
41712;BME280;27399;51.516;13.670;2023-04-21T01:18:33;100719.69;;;9.19;87.99
41712;BME280;27399;51.516;13.670;2023-04-21T01:20:58;100717.91;;;9.32;87.91
41712;BME280;27399;51.516;13.670;2023-04-21T01:23:24;100713.47;;;9.32;88.10
41712;BME280;27399;51.516;13.670;2023-04-21T01:25:51;100711.69;;;9.25;88.72
41712;BME280;27399;51.516;13.670;2023-04-21T01:28:24;100709.06;;;9.31;87.99
41712;BME280;27399;51.516;13.670;2023-04-21T01:30:51;100707.25;;;9.22;89.09
41712;BME280;27399;51.516;13.670;2023-04-21T01:33:18;100711.69;;;9.19;88.65
41712;BME280;27399;51.516;13.670;2023-04-21T01:35:45;100709.03;;;9.19;88.69
41712;BME280;27399;51.516;13.670;2023-04-21T01:38:11;100710.81;;;9.30;88.52
41712;BME280;27399;51.516;13.670;2023-04-21T01:40:37;100699.25;;;9.21;88.48
41712;BME280;27399;51.516;13.670;2023-04-21T01:43:03;100701.97;;;9.30;88.88
41712;BME280;27399;51.516;13.670;2023-04-21T01:45:30;100697.50;;;9.26;88.80
41712;BME280;27399;51.516;13.670;2023-04-21T01:47:56;100693.97;;;9.30;88.46
41712;BME280;27399;51.516;13.670;2023-04-21T01:50:22;100696.59;;;9.19;89.23
41712;BME280;27399;51.516;13.670;2023-04-21T01:52:47;100701.03;;;9.22;88.95
41712;BME280;27399;51.516;13.670;2023-04-21T01:55:13;100695.72;;;9.19;88.25
41712;BME280;27399;51.516;13.670;2023-04-21T01:57:39;100701.94;;;9.24;88.09
41712;BME280;27399;51.516;13.670;2023-04-21T02:00:05;100691.28;;;9.10;88.66
41712;BME280;27399;51.516;13.670;2023-04-21T02:02:31;100696.63;;;9.25;88.80
41712;BME280;27399;51.516;13.670;2023-04-21T02:04:57;100690.38;;;9.17;88.55
41712;BME280;27399;51.516;13.670;2023-04-21T02:07:23;100692.19;;;9.20;88.16
41712;BME280;27399;51.516;13.670;2023-04-21T02:09:48;100690.41;;;9.19;88.65
41712;BME280;27399;51.516;13.670;2023-04-21T02:12:14;100690.41;;;9.14;89.33
41712;BME280;27399;51.516;13.670;2023-04-21T02:14:40;100692.16;;;9.12;89.14
41712;BME280;27399;51.516;13.670;2023-04-21T02:17:05;100701.94;;;9.18;87.95
41712;BME280;27399;51.516;13.670;2023-04-21T02:19:31;100686.84;;;9.13;88.11
41712;BME280;27399;51.516;13.670;2023-04-21T02:21:56;100695.72;;;9.15;89.06
41712;BME280;27399;51.516;13.670;2023-04-21T02:24:22;100695.66;;;9.00;88.84
41712;BME280;27399;51.516;13.670;2023-04-21T02:26:48;100690.41;;;9.15;88.09
41712;BME280;27399;51.516;13.670;2023-04-21T02:29:13;100691.25;;;9.11;88.29
41712;BME280;27399;51.516;13.670;2023-04-21T02:31:39;100700.13;;;9.06;88.39
41712;BME280;27399;51.516;13.670;2023-04-21T02:34:06;100702.81;;;9.17;88.09
41712;BME280;27399;51.516;13.670;2023-04-21T02:36:31;100702.84;;;9.34;87.52
41712;BME280;27399;51.516;13.670;2023-04-21T02:38:57;100701.91;;;9.16;87.78
41712;BME280;27399;51.516;13.670;2023-04-21T02:41:26;100695.69;;;9.03;87.90
41712;BME280;27399;51.516;13.670;2023-04-21T02:43:51;100700.16;;;9.21;87.33
41712;BME280;27399;51.516;13.670;2023-04-21T02:46:17;100691.31;;;9.25;87.35
41712;BME280;27399;51.516;13.670;2023-04-21T02:48:42;100695.69;;;9.12;87.69
41712;BME280;27399;51.516;13.670;2023-04-21T02:51:12;100697.47;;;9.13;87.86
41712;BME280;27399;51.516;13.670;2023-04-21T02:53:38;100692.19;;;9.24;86.86
41712;BME280;27399;51.516;13.670;2023-04-21T02:56:05;100703.72;;;9.14;87.50
41712;BME280;27399;51.516;13.670;2023-04-21T02:58:30;100693.94;;;9.13;87.16
41712;BME280;27399;51.516;13.670;2023-04-21T03:00:56;100693.91;;;8.96;88.05
41712;BME280;27399;51.516;13.670;2023-04-21T03:03:21;100690.38;;;9.03;88.14
41712;BME280;27399;51.516;13.670;2023-04-21T03:05:47;100695.72;;;9.25;86.85
41712;BME280;27399;51.516;13.670;2023-04-21T03:08:13;100699.25;;;9.21;87.76
41712;BME280;27399;51.516;13.670;2023-04-21T03:10:38;100701.03;;;9.12;87.13
41712;BME280;27399;51.516;13.670;2023-04-21T03:13:04;100690.41;;;9.15;87.17
41712;BME280;27399;51.516;13.670;2023-04-21T03:15:29;100697.50;;;9.17;87.17
41712;BME280;27399;51.516;13.670;2023-04-21T03:17:55;100692.19;;;9.15;86.69
41712;BME280;27399;51.516;13.670;2023-04-21T03:20:21;100698.34;;;9.08;87.23
41712;BME280;27399;51.516;13.670;2023-04-21T03:22:46;100693.94;;;9.18;86.90
41712;BME280;27399;51.516;13.670;2023-04-21T03:25:12;100688.63;;;9.14;86.82
41712;BME280;27399;51.516;13.670;2023-04-21T03:27:38;100692.19;;;9.17;86.98
41712;BME280;27399;51.516;13.670;2023-04-21T03:30:04;100685.97;;;9.22;87.08
41712;BME280;27399;51.516;13.670;2023-04-21T03:32:31;100690.41;;;9.19;87.34
41712;BME280;27399;51.516;13.670;2023-04-21T03:34:56;100692.13;;;8.96;87.01
41712;BME280;27399;51.516;13.670;2023-04-21T03:37:22;100685.06;;;9.12;86.43
41712;BME280;27399;51.516;13.670;2023-04-21T03:39:47;100695.72;;;9.15;86.83
41712;BME280;27399;51.516;13.670;2023-04-21T03:42:13;100693.91;;;9.07;86.61
41712;BME280;27399;51.516;13.670;2023-04-21T03:44:38;100690.38;;;8.97;86.71
41712;BME280;27399;51.516;13.670;2023-04-21T03:47:04;100693.03;;;9.06;86.26
41712;BME280;27399;51.516;13.670;2023-04-21T03:49:33;100693.03;;;9.06;86.89
41712;BME280;27399;51.516;13.670;2023-04-21T03:51:58;100696.59;;;9.11;86.75
41712;BME280;27399;51.516;13.670;2023-04-21T03:54:24;100693.03;;;8.98;86.64
41712;BME280;27399;51.516;13.670;2023-04-21T03:56:50;100687.72;;;9.12;86.36
41712;BME280;27399;51.516;13.670;2023-04-21T03:59:15;100687.72;;;9.05;86.56
41712;BME280;27399;51.516;13.670;2023-04-21T04:01:41;100692.16;;;8.98;86.76
41712;BME280;27399;51.516;13.670;2023-04-21T04:04:07;100684.16;;;8.99;86.74
41712;BME280;27399;51.516;13.670;2023-04-21T04:06:33;100697.44;;;8.92;86.02
41712;BME280;27399;51.516;13.670;2023-04-21T04:09:00;100699.22;;;8.93;85.64
41712;BME280;27399;51.516;13.670;2023-04-21T04:11:30;100693.00;;;8.94;86.42
41712;BME280;27399;51.516;13.670;2023-04-21T04:13:55;100699.25;;;8.99;85.99
41712;BME280;27399;51.516;13.670;2023-04-21T04:16:21;100701.00;;;8.94;86.55
41712;BME280;27399;51.516;13.670;2023-04-21T04:18:47;100697.44;;;8.95;86.25
41712;BME280;27399;51.516;13.670;2023-04-21T04:21:13;100699.19;;;8.88;86.02
41712;BME280;27399;51.516;13.670;2023-04-21T04:23:39;100696.56;;;8.93;86.12
41712;BME280;27399;51.516;13.670;2023-04-21T04:26:05;100699.19;;;8.83;85.99
41712;BME280;27399;51.516;13.670;2023-04-21T04:28:31;100692.97;;;8.86;86.79
41712;BME280;27399;51.516;13.670;2023-04-21T04:30:56;100696.53;;;8.82;87.34
41712;BME280;27399;51.516;13.670;2023-04-21T04:33:22;100705.38;;;8.78;86.91
41712;BME280;27399;51.516;13.670;2023-04-21T04:35:47;100699.19;;;8.77;87.22
41712;BME280;27399;51.516;13.670;2023-04-21T04:38:13;100687.63;;;8.66;86.96
41712;BME280;27399;51.516;13.670;2023-04-21T04:40:41;100700.06;;;8.79;86.58
41712;BME280;27399;51.516;13.670;2023-04-21T04:43:08;100703.56;;;8.74;86.99
41712;BME280;27399;51.516;13.670;2023-04-21T04:45:35;100689.38;;;8.62;87.01
41712;BME280;27399;51.516;13.670;2023-04-21T04:48:02;100700.91;;;8.69;86.67
41712;BME280;27399;51.516;13.670;2023-04-21T04:50:28;100706.22;;;8.69;87.42
41712;BME280;27399;51.516;13.670;2023-04-21T04:52:54;100708.03;;;8.76;87.08
41712;BME280;27399;51.516;13.670;2023-04-21T04:55:20;100705.34;;;8.68;87.28
41712;BME280;27399;51.516;13.670;2023-04-21T04:57:46;100704.38;;;8.48;88.52
41712;BME280;27399;51.516;13.670;2023-04-21T05:00:12;100705.31;;;8.65;87.78
41712;BME280;27399;51.516;13.670;2023-04-21T05:02:39;100707.09;;;8.66;87.96
41712;BME280;27399;51.516;13.670;2023-04-21T05:05:06;100702.72;;;8.79;87.74
41712;BME280;27399;51.516;13.670;2023-04-21T05:07:33;100707.16;;;8.77;88.11
41712;BME280;27399;51.516;13.670;2023-04-21T05:09:59;100705.34;;;8.68;89.08
41712;BME280;27399;51.516;13.670;2023-04-21T05:12:25;100705.44;;;8.89;88.30
41712;BME280;27399;51.516;13.670;2023-04-21T05:14:51;100705.41;;;8.92;88.60
41712;BME280;27399;51.516;13.670;2023-04-21T05:17:16;100715.16;;;8.87;89.85
41712;BME280;27399;51.516;13.670;2023-04-21T05:19:42;100717.84;;;9.02;89.67
41712;BME280;27399;51.516;13.670;2023-04-21T05:22:07;100712.56;;;9.14;89.05
41712;BME280;27399;51.516;13.670;2023-04-21T05:24:33;100715.22;;;9.14;89.96
41712;BME280;27399;51.516;13.670;2023-04-21T05:26:59;100719.66;;;9.17;89.97
41712;BME280;27399;51.516;13.670;2023-04-21T05:29:25;100716.13;;;9.30;90.16
41712;BME280;27399;51.516;13.670;2023-04-21T05:31:51;100717.03;;;9.37;89.95
41712;BME280;27399;51.516;13.670;2023-04-21T05:34:16;100722.34;;;9.26;90.89
41712;BME280;27399;51.516;13.670;2023-04-21T05:36:42;100721.50;;;9.52;90.13
41712;BME280;27399;51.516;13.670;2023-04-21T05:39:08;100724.16;;;9.52;90.84
41712;BME280;27399;51.516;13.670;2023-04-21T05:41:34;100721.50;;;9.55;90.72
41712;BME280;27399;51.516;13.670;2023-04-21T05:43:59;100723.25;;;9.69;90.35
41712;BME280;27399;51.516;13.670;2023-04-21T05:46:25;100720.63;;;9.73;90.51
41712;BME280;27399;51.516;13.670;2023-04-21T05:48:51;100718.81;;;9.85;90.36
41712;BME280;27399;51.516;13.670;2023-04-21T05:51:16;100717.94;;;9.89;90.47
41712;BME280;27399;51.516;13.670;2023-04-21T05:53:43;100713.47;;;10.03;90.34
41712;BME280;27399;51.516;13.670;2023-04-21T05:56:10;100717.91;;;9.98;91.64
41712;BME280;27399;51.516;13.670;2023-04-21T05:58:36;100717.00;;;10.12;91.47
41712;BME280;27399;51.516;13.670;2023-04-21T06:01:02;100716.09;;;10.19;90.80
41712;BME280;27399;51.516;13.670;2023-04-21T06:03:32;100711.63;;;10.27;91.20
41712;BME280;27399;51.516;13.670;2023-04-21T06:05:59;100711.66;;;10.41;90.00
41712;BME280;27399;51.516;13.670;2023-04-21T06:08:25;100702.75;;;10.44;90.69
41712;BME280;27399;51.516;13.670;2023-04-21T06:10:51;100704.50;;;10.54;90.33
41712;BME280;27399;51.516;13.670;2023-04-21T06:13:16;100709.75;;;10.65;89.74
41712;BME280;27399;51.516;13.670;2023-04-21T06:15:42;100706.19;;;10.70;90.88
41712;BME280;27399;51.516;13.670;2023-04-21T06:18:07;100708.78;;;10.83;90.67
41712;BME280;27399;51.516;13.670;2023-04-21T06:20:33;100702.53;;;10.93;89.53
41712;BME280;27399;51.516;13.670;2023-04-21T06:22:59;100699.84;;;10.99;89.12
41712;BME280;27399;51.516;13.670;2023-04-21T06:25:24;100693.53;;;11.10;87.57
41712;BME280;27399;51.516;13.670;2023-04-21T06:27:50;100693.47;;;11.19;88.90
41712;BME280;27399;51.516;13.670;2023-04-21T06:30:16;100696.09;;;11.27;87.76
41712;BME280;27399;51.516;13.670;2023-04-21T06:32:42;100686.25;;;11.34;87.18
41712;BME280;27399;51.516;13.670;2023-04-21T06:35:11;100686.13;;;11.49;86.54
41712;BME280;27399;51.516;13.670;2023-04-21T06:37:38;100687.91;;;11.53;87.05
41712;BME280;27399;51.516;13.670;2023-04-21T06:40:04;100686.97;;;11.56;84.54
41712;BME280;27399;51.516;13.670;2023-04-21T06:42:30;100690.34;;;11.76;84.85
41712;BME280;27399;51.516;13.670;2023-04-21T06:44:56;100699.19;;;11.82;85.57
41712;BME280;27399;51.516;13.670;2023-04-21T06:47:21;100695.50;;;11.97;85.18
41712;BME280;27399;51.516;13.670;2023-04-21T06:49:47;100690.06;;;12.11;83.83
41712;BME280;27399;51.516;13.670;2023-04-21T06:52:12;100693.47;;;12.23;85.13
41712;BME280;27399;51.516;13.670;2023-04-21T06:54:38;100690.63;;;12.39;85.36
41712;BME280;27399;51.516;13.670;2023-04-21T06:57:04;100692.38;;;12.43;84.98
41712;BME280;27399;51.516;13.670;2023-04-21T06:59:31;100688.78;;;12.44;83.31
41712;BME280;27399;51.516;13.670;2023-04-21T07:01:57;100691.22;;;12.63;83.18
41712;BME280;27399;51.516;13.670;2023-04-21T07:04:22;100688.44;;;12.72;82.04
41712;BME280;27399;51.516;13.670;2023-04-21T07:06:48;100678.47;;;12.85;83.68
41712;BME280;27399;51.516;13.670;2023-04-21T07:09:14;100691.72;;;12.93;83.13
41712;BME280;27399;51.516;13.670;2023-04-21T07:11:39;100685.25;;;13.08;81.71
41712;BME280;27399;51.516;13.670;2023-04-21T07:14:05;100681.69;;;13.09;80.56
41712;BME280;27399;51.516;13.670;2023-04-21T07:16:31;100676.91;;;13.29;80.38
41712;BME280;27399;51.516;13.670;2023-04-21T07:18:56;100683.97;;;13.35;80.48
41712;BME280;27399;51.516;13.670;2023-04-21T07:21:22;100681.94;;;13.51;79.39
41712;BME280;27399;51.516;13.670;2023-04-21T07:23:48;100682.69;;;13.61;80.79
41712;BME280;27399;51.516;13.670;2023-04-21T07:26:13;100680.66;;;13.75;78.46
41712;BME280;27399;51.516;13.670;2023-04-21T07:28:39;100686.81;;;13.81;79.38
41712;BME280;27399;51.516;13.670;2023-04-21T07:31:06;100681.25;;;13.93;78.46
41712;BME280;27399;51.516;13.670;2023-04-21T07:33:32;100678.44;;;14.01;79.41
41712;BME280;27399;51.516;13.670;2023-04-21T07:35:57;100681.72;;;14.15;78.04
41712;BME280;27399;51.516;13.670;2023-04-21T07:38:23;100681.44;;;14.31;77.03
41712;BME280;27399;51.516;13.670;2023-04-21T07:40:49;100689.47;;;14.31;77.65
41712;BME280;27399;51.516;13.670;2023-04-21T07:43:15;100688.34;;;14.43;75.57
41712;BME280;27399;51.516;13.670;2023-04-21T07:45:40;100685.25;;;14.61;77.15
41712;BME280;27399;51.516;13.670;2023-04-21T07:48:06;100678.06;;;14.63;75.84
41712;BME280;27399;51.516;13.670;2023-04-21T07:50:32;100683.28;;;14.72;75.92
41712;BME280;27399;51.516;13.670;2023-04-21T07:53:00;100680.31;;;14.85;76.10
41712;BME280;27399;51.516;13.670;2023-04-21T07:55:27;100681.03;;;14.93;75.40
41712;BME280;27399;51.516;13.670;2023-04-21T07:57:52;100682.75;;;14.97;74.79
41712;BME280;27399;51.516;13.670;2023-04-21T08:00:18;100684.44;;;15.01;74.46
41712;BME280;27399;51.516;13.670;2023-04-21T08:02:46;100683.34;;;15.10;75.70
41712;BME280;27399;51.516;13.670;2023-04-21T08:05:12;100679.88;;;15.05;74.10
41712;BME280;27399;51.516;13.670;2023-04-21T08:07:38;100674.34;;;15.11;74.16
41712;BME280;27399;51.516;13.670;2023-04-21T08:10:05;100677.94;;;15.12;73.31
41712;BME280;27399;51.516;13.670;2023-04-21T08:12:31;100672.47;;;15.16;72.77
41712;BME280;27399;51.516;13.670;2023-04-21T08:14:56;100670.81;;;15.11;71.49
41712;BME280;27399;51.516;13.670;2023-04-21T08:17:22;100663.16;;;15.30;72.76
41712;BME280;27399;51.516;13.670;2023-04-21T08:19:47;100663.09;;;15.33;72.75
41712;BME280;27399;51.516;13.670;2023-04-21T08:22:13;100662.97;;;15.39;73.35
41712;BME280;27399;51.516;13.670;2023-04-21T08:24:39;100664.69;;;15.42;74.45
41712;BME280;27399;51.516;13.670;2023-04-21T08:27:04;100664.97;;;15.29;71.71
41712;BME280;27399;51.516;13.670;2023-04-21T08:29:30;100661.09;;;15.41;72.10
41712;BME280;27399;51.516;13.670;2023-04-21T08:31:56;100664.38;;;15.54;72.40
41712;BME280;27399;51.516;13.670;2023-04-21T08:34:21;100662.31;;;15.64;72.92
41712;BME280;27399;51.516;13.670;2023-04-21T08:36:47;100660.31;;;15.74;71.19
41712;BME280;27399;51.516;13.670;2023-04-21T08:39:14;100656.16;;;15.95;69.36
41712;BME280;27399;51.516;13.670;2023-04-21T08:41:41;100652.72;;;16.23;70.84
41712;BME280;27399;51.516;13.670;2023-04-21T08:44:07;100654.53;;;16.22;68.84
41712;BME280;27399;51.516;13.670;2023-04-21T08:46:34;100652.69;;;16.24;66.97
41712;BME280;27399;51.516;13.670;2023-04-21T08:49:01;100655.31;;;16.26;67.71
41712;BME280;27399;51.516;13.670;2023-04-21T08:51:27;100653.34;;;16.33;69.08
41712;BME280;27399;51.516;13.670;2023-04-21T08:53:56;100655.09;;;16.34;68.08
41712;BME280;27399;51.516;13.670;2023-04-21T08:56:26;100650.28;;;16.45;67.88
41712;BME280;27399;51.516;13.670;2023-04-21T08:58:52;100657.44;;;17.08;66.84
41712;BME280;27399;51.516;13.670;2023-04-21T09:01:18;100649.09;;;17.94;59.34
41712;BME280;27399;51.516;13.670;2023-04-21T09:03:43;100650.78;;;19.41;59.67
41712;BME280;27399;51.516;13.670;2023-04-21T09:06:09;100650.03;;;20.22;56.65
41712;BME280;27399;51.516;13.670;2023-04-21T09:08:40;100651.09;;;20.97;55.74
41712;BME280;27399;51.516;13.670;2023-04-21T09:11:06;100646.38;;;21.92;53.51
41712;BME280;27399;51.516;13.670;2023-04-21T09:13:34;100658.22;;;22.75;53.81
41712;BME280;27399;51.516;13.670;2023-04-21T09:16:02;100649.84;;;23.28;50.72
41712;BME280;27399;51.516;13.670;2023-04-21T09:18:29;100644.75;;;23.22;50.24
41712;BME280;27399;51.516;13.670;2023-04-21T09:21:14;100648.31;;;24.16;48.92
41712;BME280;27399;51.516;13.670;2023-04-21T09:23:49;100650.75;;;24.49;49.41
41712;BME280;27399;51.516;13.670;2023-04-21T09:26:17;100642.47;;;24.65;48.46
41712;BME280;27399;51.516;13.670;2023-04-21T09:28:45;100640.25;;;24.86;48.12
41712;BME280;27399;51.516;13.670;2023-04-21T09:31:19;100629.94;;;24.63;47.75
41712;BME280;27399;51.516;13.670;2023-04-21T09:33:46;100650.16;;;25.02;49.14
41712;BME280;27399;51.516;13.670;2023-04-21T09:36:23;100641.59;;;24.94;46.98
41712;BME280;27399;51.516;13.670;2023-04-21T09:39:00;100638.28;;;24.59;48.59
41712;BME280;27399;51.516;13.670;2023-04-21T09:41:26;100633.44;;;24.21;48.88
41712;BME280;27399;51.516;13.670;2023-04-21T09:43:52;100632.75;;;23.57;47.89
41712;BME280;27399;51.516;13.670;2023-04-21T09:46:18;100632.25;;;23.50;48.95
41712;BME280;27399;51.516;13.670;2023-04-21T09:48:46;100632.28;;;23.02;50.45
41712;BME280;27399;51.516;13.670;2023-04-21T09:51:14;100623.16;;;22.87;50.00
41712;BME280;27399;51.516;13.670;2023-04-21T09:53:42;100625.97;;;22.69;50.39
41712;BME280;27399;51.516;13.670;2023-04-21T09:56:13;100627.06;;;22.49;50.83
41712;BME280;27399;51.516;13.670;2023-04-21T09:58:53;100605.81;;;22.06;50.76
41712;BME280;27399;51.516;13.670;2023-04-21T10:01:19;100631.06;;;22.08;52.68
41712;BME280;27399;51.516;13.670;2023-04-21T10:03:47;100611.19;;;21.73;51.39
41712;BME280;27399;51.516;13.670;2023-04-21T10:06:14;100605.00;;;21.51;50.76
41712;BME280;27399;51.516;13.670;2023-04-21T10:08:40;100603.38;;;21.30;50.10
41712;BME280;27399;51.516;13.670;2023-04-21T10:11:06;100611.19;;;21.18;51.43
41712;BME280;27399;51.516;13.670;2023-04-21T10:13:33;100613.41;;;21.10;52.75
41712;BME280;27399;51.516;13.670;2023-04-21T10:16:04;100599.19;;;20.67;49.38
41712;BME280;27399;51.516;13.670;2023-04-21T10:18:37;100601.31;;;20.60;51.51
41712;BME280;27399;51.516;13.670;2023-04-21T10:21:08;100590.06;;;20.50;50.50
41712;BME280;27399;51.516;13.670;2023-04-21T10:23:42;100580.38;;;20.64;51.98
41712;BME280;27399;51.516;13.670;2023-04-21T10:26:18;100584.06;;;20.63;53.07
41712;BME280;27399;51.516;13.670;2023-04-21T10:28:53;100571.38;;;20.44;51.83
41712;BME280;27399;51.516;13.670;2023-04-21T10:31:36;100575.25;;;20.38;51.57
41712;BME280;27399;51.516;13.670;2023-04-21T10:36:28;100567.88;;;20.42;51.88
41712;BME280;27399;51.516;13.670;2023-04-21T10:38:54;100570.88;;;20.36;50.99
41712;BME280;27399;51.516;13.670;2023-04-21T10:41:33;100558.56;;;20.28;50.71
41712;BME280;27399;51.516;13.670;2023-04-21T10:44:12;100562.56;;;20.20;49.48
41712;BME280;27399;51.516;13.670;2023-04-21T10:46:39;100559.00;;;20.19;49.65
41712;BME280;27399;51.516;13.670;2023-04-21T10:49:10;100548.91;;;20.23;49.37
41712;BME280;27399;51.516;13.670;2023-04-21T10:57:12;100550.44;;;20.28;50.54
41712;BME280;27399;51.516;13.670;2023-04-21T10:59:38;100545.03;;;20.28;48.87
41712;BME280;27399;51.516;13.670;2023-04-21T11:02:10;100542.09;;;20.33;47.44
41712;BME280;27399;51.516;13.670;2023-04-21T11:04:36;100546.56;;;20.34;47.82
41712;BME280;27399;51.516;13.670;2023-04-21T11:07:16;100533.91;;;20.35;47.63
41712;BME280;27399;51.516;13.670;2023-04-21T11:09:43;100543.13;;;20.31;47.31
41712;BME280;27399;51.516;13.670;2023-04-21T11:12:11;100543.19;;;20.48;47.94
41712;BME280;27399;51.516;13.670;2023-04-21T11:14:38;100528.25;;;20.58;49.09
41712;BME280;27399;51.516;13.670;2023-04-21T11:17:19;100535.13;;;20.66;47.86
41712;BME280;27399;51.516;13.670;2023-04-21T11:19:46;100547.81;;;20.46;46.26
41712;BME280;27399;51.516;13.670;2023-04-21T11:22:12;100537.94;;;20.83;48.83
41712;BME280;27399;51.516;13.670;2023-04-21T11:24:44;100527.50;;;20.93;47.95
41712;BME280;27399;51.516;13.670;2023-04-21T11:27:13;100529.50;;;21.07;48.31
41712;BME280;27399;51.516;13.670;2023-04-21T11:29:40;100521.31;;;21.26;47.30
41712;BME280;27399;51.516;13.670;2023-04-21T11:32:06;100520.00;;;21.33;46.71
41712;BME280;27399;51.516;13.670;2023-04-21T11:34:35;100522.09;;;21.46;47.08
41712;BME280;27399;51.516;13.670;2023-04-21T11:37:00;100516.97;;;21.57;45.16
41712;BME280;27399;51.516;13.670;2023-04-21T11:39:26;100515.63;;;21.83;46.50
41712;BME280;27399;51.516;13.670;2023-04-21T11:41:52;100519.38;;;21.81;45.50
41712;BME280;27399;51.516;13.670;2023-04-21T11:44:35;100515.75;;;21.98;46.22
41712;BME280;27399;51.516;13.670;2023-04-21T11:47:26;100508.72;;;21.94;45.21
41712;BME280;27399;51.516;13.670;2023-04-21T11:49:57;100516.31;;;22.21;46.52
41712;BME280;27399;51.516;13.670;2023-04-21T11:52:30;100510.66;;;22.08;45.85
41712;BME280;27399;51.516;13.670;2023-04-21T11:55:04;100516.56;;;22.00;45.46
41712;BME280;27399;51.516;13.670;2023-04-21T11:57:32;100512.84;;;22.01;44.76
41712;BME280;27399;51.516;13.670;2023-04-21T12:00:02;100503.19;;;22.29;48.62
41712;BME280;27399;51.516;13.670;2023-04-21T12:02:30;100513.06;;;22.14;47.01
41712;BME280;27399;51.516;13.670;2023-04-21T12:05:06;100510.25;;;22.16;45.24
41712;BME280;27399;51.516;13.670;2023-04-21T12:07:34;100500.19;;;22.34;46.76
41712;BME280;27399;51.516;13.670;2023-04-21T12:10:01;100503.63;;;22.37;45.11
41712;BME280;27399;51.516;13.670;2023-04-21T12:12:36;100518.22;;;22.03;44.22
41712;BME280;27399;51.516;13.670;2023-04-21T12:15:02;100505.34;;;22.06;45.90
41712;BME280;27399;51.516;13.670;2023-04-21T12:17:37;100507.00;;;22.09;44.81
41712;BME280;27399;51.516;13.670;2023-04-21T12:20:06;100499.53;;;21.96;42.17
41712;BME280;27399;51.516;13.670;2023-04-21T12:22:32;100498.75;;;21.94;44.55
41712;BME280;27399;51.516;13.670;2023-04-21T12:24:58;100499.63;;;21.95;44.60
41712;BME280;27399;51.516;13.670;2023-04-21T12:27:25;100493.00;;;22.17;45.82
41712;BME280;27399;51.516;13.670;2023-04-21T12:29:51;100483.81;;;22.35;46.48
41712;BME280;27399;51.516;13.670;2023-04-21T12:32:16;100492.13;;;22.16;44.51
41712;BME280;27399;51.516;13.670;2023-04-21T12:34:42;100480.38;;;22.16;45.67
41712;BME280;27399;51.516;13.670;2023-04-21T12:37:08;100476.09;;;22.11;43.80
41712;BME280;27399;51.516;13.670;2023-04-21T12:39:33;100471.38;;;22.31;44.67
41712;BME280;27399;51.516;13.670;2023-04-21T12:41:59;100465.66;;;22.20;44.52
41712;BME280;27399;51.516;13.670;2023-04-21T12:44:26;100476.69;;;22.01;43.36
41712;BME280;27399;51.516;13.670;2023-04-21T12:46:52;100485.81;;;22.16;46.11
41712;BME280;27399;51.516;13.670;2023-04-21T12:49:18;100474.34;;;22.10;45.80
41712;BME280;27399;51.516;13.670;2023-04-21T12:51:44;100481.25;;;22.00;44.19